Terminal Aerodrome Forecast
Issued by NWS

Home | Current Version | Previous Version | Text Only | Print | Product List | Glossary On
Versions: 1 2 3 4 5 6 7 8 9 10 11 12 13 14 15 16 17 18 19 20 21 22
728
FTUS43 KGLD 191550 AAA
TAFMCK
TAF AMD
KMCK 191550Z 1916/2012 08015KT 5SM -RA BR SCT012 OVC030
      TEMPO 1916/1918 2SM -RA OVC012
     FM191800 09012G17KT 6SM -SHRA OVC020
     FM192000 06014G21KT 6SM SHRA OVC010
     FM200200 04012G17KT 4SM -SHRADZ OVC008=

USA.gov is the U.S. government's official web portal to all federal, state and local government web resources and services.